sensor_id;sensor_type;location;lat;lon;timestamp;P1;durP1;ratioP1;P2;durP2;ratioP2
13487;SDS011;6816;48.506;9.050;2023-04-28T00:00:06;3.77;;;2.27;;
13487;SDS011;6816;48.506;9.050;2023-04-28T00:03:07;3.03;;;2.50;;
13487;SDS011;6816;48.506;9.050;2023-04-28T00:06:08;4.27;;;2.33;;
13487;SDS011;6816;48.506;9.050;2023-04-28T00:09:10;3.40;;;2.20;;
13487;SDS011;6816;48.506;9.050;2023-04-28T00:12:10;2.40;;;2.20;;
13487;SDS011;6816;48.506;9.050;2023-04-28T00:15:11;4.17;;;2.40;;
13487;SDS011;6816;48.506;9.050;2023-04-28T00:18:12;3.10;;;2.30;;
13487;SDS011;6816;48.506;9.050;2023-04-28T00:21:13;3.47;;;2.37;;
13487;SDS011;6816;48.506;9.050;2023-04-28T00:24:13;2.83;;;2.60;;
13487;SDS011;6816;48.506;9.050;2023-04-28T00:27:14;4.23;;;2.63;;
13487;SDS011;6816;48.506;9.050;2023-04-28T00:30:15;3.43;;;2.43;;
13487;SDS011;6816;48.506;9.050;2023-04-28T00:33:15;2.93;;;2.50;;
13487;SDS011;6816;48.506;9.050;2023-04-28T00:36:16;3.00;;;2.20;;
13487;SDS011;6816;48.506;9.050;2023-04-28T00:39:17;2.57;;;2.10;;
13487;SDS011;6816;48.506;9.050;2023-04-28T00:42:17;2.40;;;2.20;;
13487;SDS011;6816;48.506;9.050;2023-04-28T00:45:18;5.03;;;2.80;;
13487;SDS011;6816;48.506;9.050;2023-04-28T00:48:18;2.90;;;2.50;;
13487;SDS011;6816;48.506;9.050;2023-04-28T00:51:19;3.37;;;2.50;;
13487;SDS011;6816;48.506;9.050;2023-04-28T00:54:20;4.17;;;2.40;;
13487;SDS011;6816;48.506;9.050;2023-04-28T00:57:21;2.80;;;2.43;;
13487;SDS011;6816;48.506;9.050;2023-04-28T01:00:22;3.07;;;2.57;;
13487;SDS011;6816;48.506;9.050;2023-04-28T01:03:22;3.20;;;2.20;;
13487;SDS011;6816;48.506;9.050;2023-04-28T01:06:23;3.33;;;2.50;;
13487;SDS011;6816;48.506;9.050;2023-04-28T01:09:24;3.00;;;2.23;;
13487;SDS011;6816;48.506;9.050;2023-04-28T01:12:25;3.47;;;2.50;;
13487;SDS011;6816;48.506;9.050;2023-04-28T01:15:25;4.60;;;2.60;;
13487;SDS011;6816;48.506;9.050;2023-04-28T01:18:26;2.57;;;2.20;;
13487;SDS011;6816;48.506;9.050;2023-04-28T01:21:28;2.40;;;2.20;;
13487;SDS011;6816;48.506;9.050;2023-04-28T01:24:31;2.33;;;2.10;;
13487;SDS011;6816;48.506;9.050;2023-04-28T01:27:32;3.23;;;2.03;;
13487;SDS011;6816;48.506;9.050;2023-04-28T01:30:32;2.77;;;2.33;;
13487;SDS011;6816;48.506;9.050;2023-04-28T01:33:34;4.17;;;2.40;;
13487;SDS011;6816;48.506;9.050;2023-04-28T01:36:35;2.80;;;2.50;;
13487;SDS011;6816;48.506;9.050;2023-04-28T01:39:36;2.50;;;2.27;;
13487;SDS011;6816;48.506;9.050;2023-04-28T01:42:37;3.20;;;2.47;;
13487;SDS011;6816;48.506;9.050;2023-04-28T01:45:37;2.17;;;2.03;;
13487;SDS011;6816;48.506;9.050;2023-04-28T01:48:38;2.37;;;2.00;;
13487;SDS011;6816;48.506;9.050;2023-04-28T01:51:38;3.13;;;2.17;;
13487;SDS011;6816;48.506;9.050;2023-04-28T01:58:37;2.40;;;2.00;;
13487;SDS011;6816;48.506;9.050;2023-04-28T02:01:38;2.97;;;2.20;;
13487;SDS011;6816;48.506;9.050;2023-04-28T02:04:39;3.17;;;2.40;;
13487;SDS011;6816;48.506;9.050;2023-04-28T02:07:40;2.43;;;2.23;;
13487;SDS011;6816;48.506;9.050;2023-04-28T02:10:40;2.70;;;2.50;;
13487;SDS011;6816;48.506;9.050;2023-04-28T02:13:41;2.50;;;2.17;;
13487;SDS011;6816;48.506;9.050;2023-04-28T02:16:41;3.10;;;2.50;;
13487;SDS011;6816;48.506;9.050;2023-04-28T02:19:42;2.80;;;2.13;;
13487;SDS011;6816;48.506;9.050;2023-04-28T02:22:43;3.27;;;2.40;;
13487;SDS011;6816;48.506;9.050;2023-04-28T02:25:43;3.23;;;2.20;;
13487;SDS011;6816;48.506;9.050;2023-04-28T02:28:44;2.80;;;1.97;;
13487;SDS011;6816;48.506;9.050;2023-04-28T02:31:45;2.63;;;2.10;;
13487;SDS011;6816;48.506;9.050;2023-04-28T02:34:45;2.40;;;2.20;;
13487;SDS011;6816;48.506;9.050;2023-04-28T02:37:46;2.43;;;2.10;;
13487;SDS011;6816;48.506;9.050;2023-04-28T02:40:47;2.30;;;2.10;;
13487;SDS011;6816;48.506;9.050;2023-04-28T02:43:47;3.33;;;2.40;;
13487;SDS011;6816;48.506;9.050;2023-04-28T02:46:48;2.27;;;2.07;;
13487;SDS011;6816;48.506;9.050;2023-04-28T02:49:49;2.70;;;2.30;;
13487;SDS011;6816;48.506;9.050;2023-04-28T02:52:49;2.93;;;2.23;;
13487;SDS011;6816;48.506;9.050;2023-04-28T02:55:50;2.33;;;2.03;;
13487;SDS011;6816;48.506;9.050;2023-04-28T02:58:50;2.33;;;2.13;;
13487;SDS011;6816;48.506;9.050;2023-04-28T03:01:51;2.40;;;2.13;;
13487;SDS011;6816;48.506;9.050;2023-04-28T03:04:52;2.80;;;2.40;;
13487;SDS011;6816;48.506;9.050;2023-04-28T03:07:52;4.00;;;2.47;;
13487;SDS011;6816;48.506;9.050;2023-04-28T03:10:53;2.83;;;2.60;;
13487;SDS011;6816;48.506;9.050;2023-04-28T03:13:54;3.30;;;2.60;;
13487;SDS011;6816;48.506;9.050;2023-04-28T03:16:54;2.77;;;2.57;;
13487;SDS011;6816;48.506;9.050;2023-04-28T03:19:56;3.00;;;2.80;;
13487;SDS011;6816;48.506;9.050;2023-04-28T03:22:57;3.70;;;3.20;;
13487;SDS011;6816;48.506;9.050;2023-04-28T03:25:57;4.03;;;3.30;;
13487;SDS011;6816;48.506;9.050;2023-04-28T03:28:58;3.93;;;3.37;;
13487;SDS011;6816;48.506;9.050;2023-04-28T03:31:59;3.63;;;3.27;;
13487;SDS011;6816;48.506;9.050;2023-04-28T03:35:00;3.53;;;3.23;;
13487;SDS011;6816;48.506;9.050;2023-04-28T03:38:00;4.27;;;3.50;;
13487;SDS011;6816;48.506;9.050;2023-04-28T03:41:01;5.50;;;3.47;;
13487;SDS011;6816;48.506;9.050;2023-04-28T03:44:02;5.20;;;3.40;;
13487;SDS011;6816;48.506;9.050;2023-04-28T03:47:02;4.07;;;3.20;;
13487;SDS011;6816;48.506;9.050;2023-04-28T03:50:03;3.13;;;2.83;;
13487;SDS011;6816;48.506;9.050;2023-04-28T03:53:04;3.60;;;3.30;;
13487;SDS011;6816;48.506;9.050;2023-04-28T03:56:05;3.50;;;3.20;;
13487;SDS011;6816;48.506;9.050;2023-04-28T03:59:06;3.47;;;2.60;;
13487;SDS011;6816;48.506;9.050;2023-04-28T04:02:06;4.60;;;3.17;;
13487;SDS011;6816;48.506;9.050;2023-04-28T04:05:07;3.63;;;3.07;;
13487;SDS011;6816;48.506;9.050;2023-04-28T04:08:08;4.10;;;2.93;;
13487;SDS011;6816;48.506;9.050;2023-04-28T04:11:09;4.57;;;3.37;;
13487;SDS011;6816;48.506;9.050;2023-04-28T04:14:09;3.93;;;3.00;;
13487;SDS011;6816;48.506;9.050;2023-04-28T04:17:10;3.50;;;3.20;;
13487;SDS011;6816;48.506;9.050;2023-04-28T04:20:11;3.80;;;3.40;;
13487;SDS011;6816;48.506;9.050;2023-04-28T04:23:11;4.77;;;3.30;;
13487;SDS011;6816;48.506;9.050;2023-04-28T04:26:12;3.90;;;2.63;;
13487;SDS011;6816;48.506;9.050;2023-04-28T04:29:13;4.30;;;3.37;;
13487;SDS011;6816;48.506;9.050;2023-04-28T04:32:13;4.10;;;3.07;;
13487;SDS011;6816;48.506;9.050;2023-04-28T04:35:14;4.03;;;3.10;;
13487;SDS011;6816;48.506;9.050;2023-04-28T04:38:15;4.10;;;3.20;;
13487;SDS011;6816;48.506;9.050;2023-04-28T04:41:16;3.67;;;3.37;;
13487;SDS011;6816;48.506;9.050;2023-04-28T04:44:19;3.67;;;2.97;;
13487;SDS011;6816;48.506;9.050;2023-04-28T04:47:20;3.30;;;3.00;;
13487;SDS011;6816;48.506;9.050;2023-04-28T04:50:21;3.43;;;3.07;;
13487;SDS011;6816;48.506;9.050;2023-04-28T04:53:21;4.10;;;3.13;;
13487;SDS011;6816;48.506;9.050;2023-04-28T04:56:22;3.30;;;3.00;;
13487;SDS011;6816;48.506;9.050;2023-04-28T04:59:23;3.57;;;3.23;;
13487;SDS011;6816;48.506;9.050;2023-04-28T05:02:23;4.00;;;3.60;;
13487;SDS011;6816;48.506;9.050;2023-04-28T05:05:24;4.73;;;3.27;;
13487;SDS011;6816;48.506;9.050;2023-04-28T05:08:25;4.57;;;3.33;;
13487;SDS011;6816;48.506;9.050;2023-04-28T05:11:25;3.70;;;3.40;;
13487;SDS011;6816;48.506;9.050;2023-04-28T05:14:26;4.07;;;3.47;;
13487;SDS011;6816;48.506;9.050;2023-04-28T05:17:27;4.93;;;3.63;;
13487;SDS011;6816;48.506;9.050;2023-04-28T05:20:27;3.40;;;3.07;;
13487;SDS011;6816;48.506;9.050;2023-04-28T05:23:28;5.17;;;3.70;;
13487;SDS011;6816;48.506;9.050;2023-04-28T05:26:28;4.17;;;3.77;;
13487;SDS011;6816;48.506;9.050;2023-04-28T05:29:32;4.10;;;3.70;;
13487;SDS011;6816;48.506;9.050;2023-04-28T05:32:33;4.50;;;3.73;;
13487;SDS011;6816;48.506;9.050;2023-04-28T05:35:35;4.30;;;3.90;;
13487;SDS011;6816;48.506;9.050;2023-04-28T05:38:35;4.23;;;3.83;;
13487;SDS011;6816;48.506;9.050;2023-04-28T05:41:36;5.03;;;3.73;;
13487;SDS011;6816;48.506;9.050;2023-04-28T05:44:37;4.20;;;3.80;;
13487;SDS011;6816;48.506;9.050;2023-04-28T05:47:37;5.83;;;4.37;;
13487;SDS011;6816;48.506;9.050;2023-04-28T05:50:38;5.23;;;4.13;;
13487;SDS011;6816;48.506;9.050;2023-04-28T05:53:38;6.77;;;3.83;;
13487;SDS011;6816;48.506;9.050;2023-04-28T05:56:39;5.43;;;4.00;;
13487;SDS011;6816;48.506;9.050;2023-04-28T05:59:40;6.03;;;4.37;;
13487;SDS011;6816;48.506;9.050;2023-04-28T06:02:41;5.30;;;4.20;;
13487;SDS011;6816;48.506;9.050;2023-04-28T06:05:41;5.13;;;4.00;;
13487;SDS011;6816;48.506;9.050;2023-04-28T06:08:42;4.23;;;3.73;;
13487;SDS011;6816;48.506;9.050;2023-04-28T06:11:42;5.67;;;3.90;;
13487;SDS011;6816;48.506;9.050;2023-04-28T06:14:43;5.10;;;4.00;;
13487;SDS011;6816;48.506;9.050;2023-04-28T06:17:44;4.27;;;3.73;;
13487;SDS011;6816;48.506;9.050;2023-04-28T06:20:44;4.97;;;4.43;;
13487;SDS011;6816;48.506;9.050;2023-04-28T06:23:45;4.63;;;4.13;;
13487;SDS011;6816;48.506;9.050;2023-04-28T06:26:46;4.83;;;4.33;;
13487;SDS011;6816;48.506;9.050;2023-04-28T06:29:46;5.10;;;4.60;;
13487;SDS011;6816;48.506;9.050;2023-04-28T06:32:47;4.80;;;4.30;;
13487;SDS011;6816;48.506;9.050;2023-04-28T06:35:48;4.23;;;3.83;;
13487;SDS011;6816;48.506;9.050;2023-04-28T06:38:49;5.73;;;4.40;;
13487;SDS011;6816;48.506;9.050;2023-04-28T06:41:50;5.87;;;4.50;;
13487;SDS011;6816;48.506;9.050;2023-04-28T06:44:50;4.87;;;4.47;;
13487;SDS011;6816;48.506;9.050;2023-04-28T06:47:52;6.17;;;4.57;;
13487;SDS011;6816;48.506;9.050;2023-04-28T06:50:54;5.30;;;4.43;;
13487;SDS011;6816;48.506;9.050;2023-04-28T06:53:55;6.93;;;5.03;;
13487;SDS011;6816;48.506;9.050;2023-04-28T06:56:56;6.07;;;4.87;;
13487;SDS011;6816;48.506;9.050;2023-04-28T06:59:56;5.40;;;4.33;;
13487;SDS011;6816;48.506;9.050;2023-04-28T07:02:57;6.93;;;4.20;;
13487;SDS011;6816;48.506;9.050;2023-04-28T07:05:57;4.20;;;3.73;;
13487;SDS011;6816;48.506;9.050;2023-04-28T07:08:58;4.27;;;3.87;;
13487;SDS011;6816;48.506;9.050;2023-04-28T07:11:59;4.27;;;3.87;;
13487;SDS011;6816;48.506;9.050;2023-04-28T07:15:00;4.90;;;4.40;;
13487;SDS011;6816;48.506;9.050;2023-04-28T07:18:00;4.03;;;3.50;;
13487;SDS011;6816;48.506;9.050;2023-04-28T07:21:01;6.30;;;4.37;;
13487;SDS011;6816;48.506;9.050;2023-04-28T07:24:02;4.40;;;3.60;;
13487;SDS011;6816;48.506;9.050;2023-04-28T07:27:02;3.93;;;3.60;;
13487;SDS011;6816;48.506;9.050;2023-04-28T07:30:03;5.70;;;4.10;;
13487;SDS011;6816;48.506;9.050;2023-04-28T07:33:04;4.40;;;3.97;;
13487;SDS011;6816;48.506;9.050;2023-04-28T07:36:05;4.73;;;4.20;;
13487;SDS011;6816;48.506;9.050;2023-04-28T07:39:06;4.60;;;4.20;;
13487;SDS011;6816;48.506;9.050;2023-04-28T07:42:07;4.93;;;4.47;;
13487;SDS011;6816;48.506;9.050;2023-04-28T07:45:10;6.63;;;3.93;;
13487;SDS011;6816;48.506;9.050;2023-04-28T07:48:11;5.20;;;4.10;;
13487;SDS011;6816;48.506;9.050;2023-04-28T07:51:11;6.33;;;4.47;;
13487;SDS011;6816;48.506;9.050;2023-04-28T07:54:13;4.43;;;4.03;;
13487;SDS011;6816;48.506;9.050;2023-04-28T07:57:14;4.60;;;4.20;;
13487;SDS011;6816;48.506;9.050;2023-04-28T08:00:15;5.30;;;3.70;;
13487;SDS011;6816;48.506;9.050;2023-04-28T08:03:16;4.07;;;3.73;;
13487;SDS011;6816;48.506;9.050;2023-04-28T08:06:17;6.07;;;4.37;;
13487;SDS011;6816;48.506;9.050;2023-04-28T08:09:18;4.30;;;3.93;;
13487;SDS011;6816;48.506;9.050;2023-04-28T08:12:19;4.83;;;3.83;;
13487;SDS011;6816;48.506;9.050;2023-04-28T08:15:20;4.30;;;3.90;;
13487;SDS011;6816;48.506;9.050;2023-04-28T08:18:22;4.93;;;4.30;;
13487;SDS011;6816;48.506;9.050;2023-04-28T08:21:22;6.27;;;5.13;;
13487;SDS011;6816;48.506;9.050;2023-04-28T08:24:23;6.43;;;5.83;;
13487;SDS011;6816;48.506;9.050;2023-04-28T08:27:24;7.17;;;6.20;;
13487;SDS011;6816;48.506;9.050;2023-04-28T08:30:25;7.13;;;6.07;;
13487;SDS011;6816;48.506;9.050;2023-04-28T08:33:25;6.60;;;6.00;;
13487;SDS011;6816;48.506;9.050;2023-04-28T08:36:26;5.47;;;4.90;;
13487;SDS011;6816;48.506;9.050;2023-04-28T08:39:30;6.30;;;5.17;;
13487;SDS011;6816;48.506;9.050;2023-04-28T08:42:33;5.33;;;4.50;;
13487;SDS011;6816;48.506;9.050;2023-04-28T08:45:41;5.03;;;4.07;;
13487;SDS011;6816;48.506;9.050;2023-04-28T08:48:44;5.00;;;4.47;;
13487;SDS011;6816;48.506;9.050;2023-04-28T08:51:48;4.87;;;4.20;;
13487;SDS011;6816;48.506;9.050;2023-04-28T08:54:50;6.07;;;4.97;;
13487;SDS011;6816;48.506;9.050;2023-04-28T08:57:51;5.50;;;5.00;;
13487;SDS011;6816;48.506;9.050;2023-04-28T09:00:53;7.07;;;5.27;;
13487;SDS011;6816;48.506;9.050;2023-04-28T09:03:54;6.00;;;5.37;;
13487;SDS011;6816;48.506;9.050;2023-04-28T09:06:55;8.47;;;5.43;;
13487;SDS011;6816;48.506;9.050;2023-04-28T09:13:25;5.00;;;3.70;;
13487;SDS011;6816;48.506;9.050;2023-04-28T09:16:38;5.13;;;3.00;;
13487;SDS011;6816;48.506;9.050;2023-04-28T09:19:40;3.87;;;3.10;;
13487;SDS011;6816;48.506;9.050;2023-04-28T09:22:44;2.63;;;2.40;;
13487;SDS011;6816;48.506;9.050;2023-04-28T09:29:14;2.40;;;1.70;;
13487;SDS011;6816;48.506;9.050;2023-04-28T09:32:16;2.47;;;2.00;;
13487;SDS011;6816;48.506;9.050;2023-04-28T09:35:38;2.50;;;1.77;;
13487;SDS011;6816;48.506;9.050;2023-04-28T09:38:44;2.17;;;1.57;;
13487;SDS011;6816;48.506;9.050;2023-04-28T09:41:44;1.93;;;1.40;;
13487;SDS011;6816;48.506;9.050;2023-04-28T09:44:51;2.87;;;1.30;;
13487;SDS011;6816;48.506;9.050;2023-04-28T09:47:52;2.93;;;1.70;;
13487;SDS011;6816;48.506;9.050;2023-04-28T09:51:09;1.83;;;1.25;;
13487;SDS011;6816;48.506;9.050;2023-04-28T09:54:10;1.87;;;1.10;;
13487;SDS011;6816;48.506;9.050;2023-04-28T09:57:12;2.10;;;1.00;;
13487;SDS011;6816;48.506;9.050;2023-04-28T10:00:13;1.02;;;0.80;;
13487;SDS011;6816;48.506;9.050;2023-04-28T10:03:15;0.90;;;0.80;;
13487;SDS011;6816;48.506;9.050;2023-04-28T10:06:18;0.80;;;0.70;;
13487;SDS011;6816;48.506;9.050;2023-04-28T10:09:19;0.70;;;0.70;;
13487;SDS011;6816;48.506;9.050;2023-04-28T10:12:25;0.60;;;0.60;;
13487;SDS011;6816;48.506;9.050;2023-04-28T10:15:26;1.17;;;0.60;;
13487;SDS011;6816;48.506;9.050;2023-04-28T10:18:28;0.70;;;0.70;;
13487;SDS011;6816;48.506;9.050;2023-04-28T10:21:29;0.60;;;0.60;;
13487;SDS011;6816;48.506;9.050;2023-04-28T10:28:08;0.75;;;0.75;;
13487;SDS011;6816;48.506;9.050;2023-04-28T10:31:10;1.27;;;0.70;;
13487;SDS011;6816;48.506;9.050;2023-04-28T10:34:21;0.82;;;0.60;;
13487;SDS011;6816;48.506;9.050;2023-04-28T10:38:01;0.65;;;0.52;;
13487;SDS011;6816;48.506;9.050;2023-04-28T10:41:02;1.42;;;0.60;;
13487;SDS011;6816;48.506;9.050;2023-04-28T10:44:48;0.47;;;0.47;;
13487;SDS011;6816;48.506;9.050;2023-04-28T10:47:30;0.60;;;0.60;;
13487;SDS011;6816;48.506;9.050;2023-04-28T10:54:08;0.52;;;0.52;;
13487;SDS011;6816;48.506;9.050;2023-04-28T10:57:16;0.43;;;0.43;;
13487;SDS011;6816;48.506;9.050;2023-04-28T11:00:29;0.40;;;0.40;;
13487;SDS011;6816;48.506;9.050;2023-04-28T11:03:43;0.50;;;0.40;;
13487;SDS011;6816;48.506;9.050;2023-04-28T11:07:08;1.85;;;0.30;;
13487;SDS011;6816;48.506;9.050;2023-04-28T11:10:11;0.30;;;0.30;;
13487;SDS011;6816;48.506;9.050;2023-04-28T11:13:27;0.60;;;0.32;;
13487;SDS011;6816;48.506;9.050;2023-04-28T11:16:32;0.38;;;0.30;;
13487;SDS011;6816;48.506;9.050;2023-04-28T11:19:46;0.40;;;0.40;;
13487;SDS011;6816;48.506;9.050;2023-04-28T11:22:50;0.22;;;0.22;;
13487;SDS011;6816;48.506;9.050;2023-04-28T11:25:55;0.30;;;0.30;;
13487;SDS011;6816;48.506;9.050;2023-04-28T11:28:57;0.40;;;0.40;;
13487;SDS011;6816;48.506;9.050;2023-04-28T11:31:57;0.30;;;0.30;;
13487;SDS011;6816;48.506;9.050;2023-04-28T11:34:58;0.75;;;0.30;;
13487;SDS011;6816;48.506;9.050;2023-04-28T11:38:02;0.60;;;0.40;;
13487;SDS011;6816;48.506;9.050;2023-04-28T11:41:03;0.40;;;0.40;;
13487;SDS011;6816;48.506;9.050;2023-04-28T11:44:13;1.10;;;0.52;;
13487;SDS011;6816;48.506;9.050;2023-04-28T11:47:33;0.30;;;0.30;;
13487;SDS011;6816;48.506;9.050;2023-04-28T11:50:36;0.47;;;0.30;;
13487;SDS011;6816;48.506;9.050;2023-04-28T11:53:43;0.50;;;0.40;;
13487;SDS011;6816;48.506;9.050;2023-04-28T11:56:44;0.40;;;0.40;;
13487;SDS011;6816;48.506;9.050;2023-04-28T11:59:45;0.40;;;0.40;;
13487;SDS011;6816;48.506;9.050;2023-04-28T12:02:46;0.95;;;0.45;;
13487;SDS011;6816;48.506;9.050;2023-04-28T12:05:47;0.40;;;0.40;;
13487;SDS011;6816;48.506;9.050;2023-04-28T12:08:48;1.23;;;0.40;;
13487;SDS011;6816;48.506;9.050;2023-04-28T12:11:52;0.38;;;0.38;;
13487;SDS011;6816;48.506;9.050;2023-04-28T12:15:07;0.75;;;0.40;;
13487;SDS011;6816;48.506;9.050;2023-04-28T12:18:08;0.50;;;0.50;;
13487;SDS011;6816;48.506;9.050;2023-04-28T12:21:19;0.38;;;0.38;;
13487;SDS011;6816;48.506;9.050;2023-04-28T12:24:20;0.82;;;0.30;;
13487;SDS011;6816;48.506;9.050;2023-04-28T12:27:21;0.65;;;0.65;;
13487;SDS011;6816;48.506;9.050;2023-04-28T12:30:23;1.40;;;0.50;;
13487;SDS011;6816;48.506;9.050;2023-04-28T12:33:25;0.88;;;0.40;;
13487;SDS011;6816;48.506;9.050;2023-04-28T12:36:27;0.40;;;0.40;;
13487;SDS011;6816;48.506;9.050;2023-04-28T12:39:28;0.75;;;0.50;;
13487;SDS011;6816;48.506;9.050;2023-04-28T12:42:29;0.50;;;0.50;;
13487;SDS011;6816;48.506;9.050;2023-04-28T12:45:30;0.75;;;0.57;;
13487;SDS011;6816;48.506;9.050;2023-04-28T12:48:31;0.68;;;0.50;;
13487;SDS011;6816;48.506;9.050;2023-04-28T12:51:34;0.40;;;0.40;;
13487;SDS011;6816;48.506;9.050;2023-04-28T12:54:34;1.10;;;0.30;;
13487;SDS011;6816;48.506;9.050;2023-04-28T12:57:35;0.30;;;0.30;;
13487;SDS011;6816;48.506;9.050;2023-04-28T13:00:36;0.38;;;0.38;;
13487;SDS011;6816;48.506;9.050;2023-04-28T13:03:37;0.30;;;0.30;;
13487;SDS011;6816;48.506;9.050;2023-04-28T13:06:38;1.05;;;0.40;;
13487;SDS011;6816;48.506;9.050;2023-04-28T13:09:42;0.52;;;0.30;;
13487;SDS011;6816;48.506;9.050;2023-04-28T13:12:43;0.82;;;0.40;;
13487;SDS011;6816;48.506;9.050;2023-04-28T13:15:44;0.30;;;0.30;;
13487;SDS011;6816;48.506;9.050;2023-04-28T13:18:45;0.40;;;0.40;;
13487;SDS011;6816;48.506;9.050;2023-04-28T13:21:47;0.50;;;0.40;;
13487;SDS011;6816;48.506;9.050;2023-04-28T13:24:48;0.40;;;0.40;;
13487;SDS011;6816;48.506;9.050;2023-04-28T13:27:49;0.77;;;0.40;;
13487;SDS011;6816;48.506;9.050;2023-04-28T13:30:50;0.68;;;0.40;;
13487;SDS011;6816;48.506;9.050;2023-04-28T13:33:50;0.77;;;0.40;;
13487;SDS011;6816;48.506;9.050;2023-04-28T13:36:52;0.40;;;0.40;;
13487;SDS011;6816;48.506;9.050;2023-04-28T13:39:54;0.40;;;0.40;;
13487;SDS011;6816;48.506;9.050;2023-04-28T13:42:55;0.30;;;0.30;;
13487;SDS011;6816;48.506;9.050;2023-04-28T13:45:56;0.50;;;0.50;;
13487;SDS011;6816;48.506;9.050;2023-04-28T13:48:56;0.40;;;0.40;;
13487;SDS011;6816;48.506;9.050;2023-04-28T13:51:57;0.40;;;0.40;;
13487;SDS011;6816;48.506;9.050;2023-04-28T13:54:58;1.05;;;0.50;;
13487;SDS011;6816;48.506;9.050;2023-04-28T13:57:58;0.65;;;0.65;;
13487;SDS011;6816;48.506;9.050;2023-04-28T14:01:03;1.52;;;0.68;;
13487;SDS011;6816;48.506;9.050;2023-04-28T14:04:04;0.47;;;0.47;;
13487;SDS011;6816;48.506;9.050;2023-04-28T14:07:04;0.93;;;0.60;;
13487;SDS011;6816;48.506;9.050;2023-04-28T14:10:05;1.20;;;0.80;;
13487;SDS011;6816;48.506;9.050;2023-04-28T14:13:06;1.13;;;0.82;;
13487;SDS011;6816;48.506;9.050;2023-04-28T14:16:07;0.93;;;0.60;;
13487;SDS011;6816;48.506;9.050;2023-04-28T14:19:08;4.43;;;0.70;;
13487;SDS011;6816;48.506;9.050;2023-04-28T14:22:08;1.20;;;0.50;;
13487;SDS011;6816;48.506;9.050;2023-04-28T14:25:09;1.70;;;0.60;;
13487;SDS011;6816;48.506;9.050;2023-04-28T14:28:10;1.38;;;0.70;;
13487;SDS011;6816;48.506;9.050;2023-04-28T14:31:11;1.00;;;0.60;;
13487;SDS011;6816;48.506;9.050;2023-04-28T14:34:11;0.50;;;0.50;;
13487;SDS011;6816;48.506;9.050;2023-04-28T14:37:12;1.75;;;0.70;;
13487;SDS011;6816;48.506;9.050;2023-04-28T14:40:13;0.70;;;0.52;;
13487;SDS011;6816;48.506;9.050;2023-04-28T14:43:14;3.83;;;1.10;;
13487;SDS011;6816;48.506;9.050;2023-04-28T14:46:15;1.60;;;0.87;;
13487;SDS011;6816;48.506;9.050;2023-04-28T14:49:21;1.57;;;0.80;;
13487;SDS011;6816;48.506;9.050;2023-04-28T14:52:22;1.73;;;0.83;;
13487;SDS011;6816;48.506;9.050;2023-04-28T14:55:28;1.03;;;0.70;;
13487;SDS011;6816;48.506;9.050;2023-04-28T14:58:28;1.33;;;0.80;;
13487;SDS011;6816;48.506;9.050;2023-04-28T15:01:29;1.10;;;0.83;;
13487;SDS011;6816;48.506;9.050;2023-04-28T15:04:30;0.80;;;0.80;;
13487;SDS011;6816;48.506;9.050;2023-04-28T15:07:31;1.63;;;1.13;;
13487;SDS011;6816;48.506;9.050;2023-04-28T15:10:36;1.67;;;0.83;;
13487;SDS011;6816;48.506;9.050;2023-04-28T15:13:38;2.03;;;1.20;;
13487;SDS011;6816;48.506;9.050;2023-04-28T15:16:38;1.43;;;1.33;;
13487;SDS011;6816;48.506;9.050;2023-04-28T15:19:39;1.70;;;1.10;;
13487;SDS011;6816;48.506;9.050;2023-04-28T15:22:40;2.20;;;0.80;;
13487;SDS011;6816;48.506;9.050;2023-04-28T15:25:43;0.90;;;0.90;;
13487;SDS011;6816;48.506;9.050;2023-04-28T15:28:44;1.00;;;1.00;;
13487;SDS011;6816;48.506;9.050;2023-04-28T15:31:44;1.00;;;0.90;;
13487;SDS011;6816;48.506;9.050;2023-04-28T15:34:45;0.67;;;0.67;;
13487;SDS011;6816;48.506;9.050;2023-04-28T15:37:46;0.70;;;0.70;;
13487;SDS011;6816;48.506;9.050;2023-04-28T15:40:49;0.80;;;0.77;;
13487;SDS011;6816;48.506;9.050;2023-04-28T15:43:49;1.00;;;0.90;;
13487;SDS011;6816;48.506;9.050;2023-04-28T15:46:50;1.00;;;0.87;;
13487;SDS011;6816;48.506;9.050;2023-04-28T15:49:51;1.10;;;0.98;;
13487;SDS011;6816;48.506;9.050;2023-04-28T15:52:52;0.90;;;0.80;;
13487;SDS011;6816;48.506;9.050;2023-04-28T15:55:52;0.93;;;0.83;;
13487;SDS011;6816;48.506;9.050;2023-04-28T15:58:53;7.40;;;1.07;;
13487;SDS011;6816;48.506;9.050;2023-04-28T16:01:54;2.37;;;1.13;;
13487;SDS011;6816;48.506;9.050;2023-04-28T16:04:55;3.63;;;1.17;;
13487;SDS011;6816;48.506;9.050;2023-04-28T16:07:55;3.27;;;1.70;;
13487;SDS011;6816;48.506;9.050;2023-04-28T16:10:56;2.23;;;1.57;;
13487;SDS011;6816;48.506;9.050;2023-04-28T16:13:57;4.37;;;2.10;;
13487;SDS011;6816;48.506;9.050;2023-04-28T16:16:57;2.53;;;1.73;;
13487;SDS011;6816;48.506;9.050;2023-04-28T16:19:58;3.35;;;2.05;;
13487;SDS011;6816;48.506;9.050;2023-04-28T16:22:59;2.37;;;1.53;;
13487;SDS011;6816;48.506;9.050;2023-04-28T16:26:00;1.97;;;1.43;;
13487;SDS011;6816;48.506;9.050;2023-04-28T16:29:00;1.87;;;1.40;;
13487;SDS011;6816;48.506;9.050;2023-04-28T16:32:01;1.47;;;1.17;;
13487;SDS011;6816;48.506;9.050;2023-04-28T16:35:03;1.43;;;1.23;;
13487;SDS011;6816;48.506;9.050;2023-04-28T16:38:05;1.10;;;1.10;;
13487;SDS011;6816;48.506;9.050;2023-04-28T16:41:05;0.90;;;0.90;;
13487;SDS011;6816;48.506;9.050;2023-04-28T16:44:06;1.27;;;1.00;;
13487;SDS011;6816;48.506;9.050;2023-04-28T16:47:07;1.80;;;1.20;;
13487;SDS011;6816;48.506;9.050;2023-04-28T16:50:11;1.60;;;0.90;;
13487;SDS011;6816;48.506;9.050;2023-04-28T16:53:13;1.23;;;1.10;;
13487;SDS011;6816;48.506;9.050;2023-04-28T16:56:14;1.10;;;1.00;;
13487;SDS011;6816;48.506;9.050;2023-04-28T16:59:14;1.23;;;1.00;;
13487;SDS011;6816;48.506;9.050;2023-04-28T17:02:16;2.30;;;1.00;;
13487;SDS011;6816;48.506;9.050;2023-04-28T17:05:17;1.00;;;0.80;;
13487;SDS011;6816;48.506;9.050;2023-04-28T17:08:17;1.93;;;1.10;;
13487;SDS011;6816;48.506;9.050;2023-04-28T17:11:18;1.40;;;0.90;;
13487;SDS011;6816;48.506;9.050;2023-04-28T17:14:19;0.73;;;0.73;;
13487;SDS011;6816;48.506;9.050;2023-04-28T17:17:20;1.27;;;1.10;;
13487;SDS011;6816;48.506;9.050;2023-04-28T17:20:20;2.33;;;1.47;;
13487;SDS011;6816;48.506;9.050;2023-04-28T17:23:21;3.38;;;1.40;;
13487;SDS011;6816;48.506;9.050;2023-04-28T17:26:22;1.70;;;1.60;;
13487;SDS011;6816;48.506;9.050;2023-04-28T17:29:24;3.63;;;1.70;;
13487;SDS011;6816;48.506;9.050;2023-04-28T17:32:25;1.60;;;1.50;;
13487;SDS011;6816;48.506;9.050;2023-04-28T17:35:27;2.07;;;1.73;;
13487;SDS011;6816;48.506;9.050;2023-04-28T17:38:28;1.77;;;1.60;;
13487;SDS011;6816;48.506;9.050;2023-04-28T17:41:29;1.60;;;1.50;;
13487;SDS011;6816;48.506;9.050;2023-04-28T17:44:30;2.00;;;1.55;;
13487;SDS011;6816;48.506;9.050;2023-04-28T17:47:31;1.57;;;1.47;;
13487;SDS011;6816;48.506;9.050;2023-04-28T17:50:33;1.43;;;1.33;;
13487;SDS011;6816;48.506;9.050;2023-04-28T17:53:33;1.70;;;1.30;;
13487;SDS011;6816;48.506;9.050;2023-04-28T17:56:38;2.50;;;1.30;;
13487;SDS011;6816;48.506;9.050;2023-04-28T17:59:38;1.27;;;1.17;;
13487;SDS011;6816;48.506;9.050;2023-04-28T18:02:39;1.97;;;1.40;;
13487;SDS011;6816;48.506;9.050;2023-04-28T18:05:40;1.57;;;1.07;;
13487;SDS011;6816;48.506;9.050;2023-04-28T18:08:40;1.60;;;1.27;;
13487;SDS011;6816;48.506;9.050;2023-04-28T18:11:41;1.30;;;1.20;;
13487;SDS011;6816;48.506;9.050;2023-04-28T18:14:42;2.97;;;1.40;;
13487;SDS011;6816;48.506;9.050;2023-04-28T18:17:43;1.13;;;1.03;;
13487;SDS011;6816;48.506;9.050;2023-04-28T18:20:44;2.50;;;1.30;;
13487;SDS011;6816;48.506;9.050;2023-04-28T18:23:46;1.37;;;1.23;;
13487;SDS011;6816;48.506;9.050;2023-04-28T18:26:46;1.20;;;1.10;;
13487;SDS011;6816;48.506;9.050;2023-04-28T18:29:47;1.37;;;1.10;;
13487;SDS011;6816;48.506;9.050;2023-04-28T18:32:48;1.23;;;1.13;;
13487;SDS011;6816;48.506;9.050;2023-04-28T18:36:02;1.40;;;1.20;;
13487;SDS011;6816;48.506;9.050;2023-04-28T18:39:05;1.90;;;1.70;;
13487;SDS011;6816;48.506;9.050;2023-04-28T18:42:06;2.23;;;1.50;;
13487;SDS011;6816;48.506;9.050;2023-04-28T18:45:07;3.17;;;2.87;;
13487;SDS011;6816;48.506;9.050;2023-04-28T18:48:08;2.90;;;2.50;;